Terminal Aerodrome Forecast
Issued by NWS Melbourne, FL

Home | Current Version | Previous Version | Text Only | Print | Product List | Glossary On
Versions: 1 2 3 4 5 6 7 8 9 10 11 12 13 14
000
FTUS42 KMLB 251733
TAFDAB
TAF
KDAB 251733Z 2518/2618 23012KT P6SM BKN030 BKN050 BKN250
     FM252000 25010G17KT P6SM VCTS SCT035CB BKN060
     FM260100 23009KT P6SM SCT060 BKN200
     FM260900 23009KT P6SM SCT005 BKN020 OVC100
     FM261400 25015G23KT P6SM VCSH BKN035 OVC100=

USA.gov is the U.S. government's official web portal to all federal, state and local government web resources and services.